Måndag 2022-01-24 01:27:18 vecka 4, namnsdag Erika, imorgon Paul, Pål  [Huvudmeny]   minomax.se   minomax.se/metar   minomax.se/flyg   wwwinfo.se   medd.nu  -  meddelanden   kakor METAR-data Visa METAR-temperaturer och data
Land: skriv landsbeteckning, 2 bokstäver, tex. se för Sverige. Sök land Sökord: skriv sökord, eller lämna tomt så visas alla Visar METAR för SE- Sverige Land/ IATA/ICAO Id Flygplats Temp Tid Datum region METAR... ---- ------------------------- ---- ----- ---------- ------ --- ------------... ESCF Linköping/Malmen Air Base 4 00:50 2022-01-24 SE-E --- ESCF 232350Z AUTO 24010KT 9999 OVC009/// 04/03 Q1023= ESCM Uppsala Airport 1 00:50 2022-01-24 SE-C --- ESCM 232350Z AUTO 23007KT 190V250 6000 VV005 01/01 Q1020= ESDF Ronneby Airport 5 00:50 2022-01-24 SE-K RNB ESDF 232350Z AUTO 26005KT 9000 FEW004/// OVC007/// 05/05 Q1028= ESGG Gothenburg-Landvetter Air 4 00:50 2022-01-24 SE-Q GOT ESGG 232350Z 26011KT 9999 OVC005 04/04 Q1027= ESGJ Jönköping Airport 4 00:50 2022-01-24 SE-F JKG ESGJ 232350Z AUTO 25011KT 7000 OVC005/// 04/04 Q1025=
ESGP Gothenburg City Airport 6 00:50 2022-01-24 SE-Q GSE ESGP 232350Z AUTO 24009KT 210V270 9999 OVC015/// 06/04 Q1027= ESGR Skövde Airport 5 00:50 2022-01-24 SE-Q KVB ESGR 232350Z AUTO 24013KT 6000 BR OVC005/// 05/04 Q1023= ESGT Trollhättan-Vänersborg Ai 6 00:50 2022-01-24 SE-Q THN ESGT 232350Z AUTO 25015G25KT 220V290 9999 OVC012/// 06/03 Q1025= ESIA Karlsborg Air Base 5 00:50 2022-01-24 SE-Q --- ESIA 232350Z AUTO 25012KT 9999 OVC007/// 05/04 Q1023= ESIB Såtenäs Air Base 5 00:50 2022-01-24 SE-Q --- ESIB 232350Z AUTO 24015KT 9999 OVC010/// 05/04 Q1024=
ESKM Mora Airport 0 00:50 2022-01-24 SE-W MXX ESKM 232350Z AUTO 24005KT 200V270 9999 NCD 00/M01 Q1016= ESKN Stockholm / Nyköping/Stoc 2 00:50 2022-01-24 SE-D NYO ESKN 232350Z 24005KT 9999 OVC005 02/02 Q1022= ESKS Sälen - Trysil Airport -3 00:50 2022-01-24 SE-W SCR ESKS 232350Z AUTO VRB02KT 9999 NCD M03/M04 Q1016= ESMK Kristianstad Airport 6 00:50 2022-01-24 SE-M KID ESMK 232350Z AUTO 27009KT 9999 BKN008/// OVC010/// 06/05 Q1030= ESMQ Kalmar Airport 3 00:50 2022-01-24 SE-H KLR ESMQ 232350Z AUTO 19004KT 9999 OVC013/// 03/03 Q1027=
ESMS Malmö Sturup Airport 5 00:50 2022-01-24 SE-M MMX ESMS 232350Z 29008KT 7000 OVC003 05/05 Q1031= ESMT Halmstad Airport 5 00:50 2022-01-24 SE-N HAD ESMT 232350Z AUTO 29009KT 9999 FEW005/// OVC008/// 05/05 Q1029= ESMX Växjö Kronoberg Airport 4 00:50 2022-01-24 SE-G VXO ESMX 232350Z AUTO 26009KT 2500 BR OVC002/// 04/04 Q1027= ESND Sveg Airport 0 00:50 2022-01-24 SE-Z EVG ESND 232350Z AUTO 27006KT 230V290 9999 NCD 00/M03 Q1013= ESNG Gällivare Airport 6 00:50 2022-01-24 SE-BD GEV ESNG 232350Z AUTO 22016KT 9999 NCD 06/M01 Q0992=
ESNK Kramfors / Sollefteå/Kram -10 00:50 2022-01-24 SE-Y KRF ESNK 232350Z AUTO 35002KT 6000 OVC002/// M10/M10 Q1012= ESNL Lycksele Airport 6 00:50 2022-01-24 SE-AC LYC ESNL 232350Z AUTO 19004KT 140V240 9999 FEW045/// 06/M00 Q1007= ESNN Sundsvall/ Härnösand/Sund -8 00:50 2022-01-24 SE-Y SDL ESNN 232350Z AUTO 35002KT 9999 NCD M08/M09 Q1013= ESNO Örnsköldsvik Airport -3 00:50 2022-01-24 SE-Y OER ESNO 232350Z AUTO 28006KT 9999 NCD M03/M03 Q1010= ESNQ Kiruna Airport 5 00:50 2022-01-24 SE-BD KRN ESNQ 232350Z AUTO 20023KT 9999 NCD 05/M00 Q0987=
ESNS Skellefteå Airport 3 00:50 2022-01-24 SE-AC SFT ESNS 232350Z AUTO 20013KT 9999 NCD 03/M00 Q1008= ESNU Umeå Airport 0 00:50 2022-01-24 SE-AC UME ESNU 232350Z AUTO 17006KT 9999 NCD 00/M01 Q1011= ESNV Vilhelmina Airport 4 00:50 2022-01-24 SE-AC VHM ESNV 232350Z AUTO 21010KT 9999 -DZ BKN032/// 04/M00 Q1007= ESNX Arvidsjaur Airport 5 00:50 2022-01-24 SE-BD AJR ESNX 232350Z AUTO 22009KT 170V260 9999 NCD 05/// Q1001= ESNZ Åre Östersund Airport 3 00:50 2022-01-24 SE-Z OSD ESNZ 232350Z AUTO 18011KT 9999 NCD 03/M02 Q1009=
ESOE Örebro Airport 4 00:50 2022-01-24 SE-T ORB ESOE 232350Z AUTO 22010KT 9999 OVC005/// 04/03 Q1022= ESOH Hagfors Airport -1 00:50 2022-01-24 SE-S HFS ESOH 232350Z AUTO VRB03KT 3200 OVC002/// M01/M01 Q1020= ESOK Karlstad Airport 0 00:50 2022-01-24 SE-S KSD ESOK 232350Z AUTO 15003KT 130V200 0500 R03/P1500N R21/P1500D OVC004/// M00/M00 Q1021= ESOW Stockholm Västerås Airpor 2 00:50 2022-01-24 SE-U VST ESOW 232350Z AUTO 22009KT 6000 BR OVC002/// 02/01 Q1021= ESPA Luleå Airport 5 00:50 2022-01-24 SE-BD LLA ESPA 232350Z AUTO 19011KT 9999 NCD 05/01 Q1003=
ESPE Vidsel Air Base 7 00:50 2022-01-24 SE-BD --- ESPE 232350Z AUTO 24010G22KT 200V280 9999 NCD 07/01 Q1000= ESSA Stockholm-Arlanda Airport 0 00:50 2022-01-24 SE-AB ARN ESSA 232350Z 23012KT 3000 BR OVC002 00/00 Q1021 TEMPO 2000 BR= ESSB Stockholm-Bromma Airport 1 00:50 2022-01-24 SE-AB BMA ESSB 232350Z AUTO 24008KT 5000 BR OVC002/// 01/00 Q1022= ESSD Borlange Airport 2 00:50 2022-01-24 SE-W BLE ESSD 232350Z AUTO 25009KT 9999 NCD 02/M01 Q1017= ESSL Linköping City Airport 4 00:50 2022-01-24 SE-E LPI ESSL 232350Z AUTO 25006KT 220V290 9999 OVC009/// 04/03 Q1023=
ESSP Norrköping Airport 3 00:50 2022-01-24 SE-E NRK ESSP 232350Z AUTO 25010KT 9999 OVC008/// 03/02 Q1023= ESST Torsby Airport -3 00:50 2022-01-24 SE-S TYF ESST 232350Z AUTO 16003KT 0150 R16/0550N R34/0900N FZFG OVC001/// M03/M03 Q1020= ESSV Visby Airport 2 00:50 2022-01-24 SE-I VBY ESSV 232350Z AUTO 25011KT 9999 OVC003/// 02/02 Q1025= ESTA Ängelholm-Helsingborg Air 5 00:50 2022-01-24 SE-M AGH ESTA 232350Z AUTO 28009KT 9999 OVC006/// 05/04 Q1030= ESTL Ljungbyhed Airport 5 00:50 2022-01-24 SE-M --- ESTL 232350Z AUTO 28010KT 5000 BR OVC002/// 05/05 Q1030=
ESUP Pajala Airport 5 00:50 2022-01-24 SE-BD PJA ESUP 232350Z AUTO 21015KT 180V240 //// NCD 05/01 Q0994= ESUT Hemavan Airport 4 00:50 2022-01-24 SE-AC HMV ESUT 232350Z AUTO VRB06KT 9999 SCT021/// BKN033/// BKN048/// 04/02 Q0999= (47 rader visades) Du kan lägga till id-beteckningen först på raden i valfri Lista 1 - 5 [top] ↕°C [1] [2] [3] [4] [5] ??? LISTOR 00-nr NOT MEDD MT METAR SYNOP SE SE-AB SE-C SE-D SE-E SE-F SE-G SE-H SE-I SE-K SE-M SE-N SE-O SE-P SE-T SE-U SE-W SE-X SE-Y SE-Z SE-AC SE-BD rådata flyg flyg_osd